createdAt,value
2023-02-06T00:00:57.284Z,0.00
2023-02-06T00:01:56.679Z,0.00
2023-02-06T00:02:56.232Z,0.00
2023-02-06T00:05:23.576Z,0.00
2023-02-06T00:06:19.865Z,0.00
2023-02-06T00:07:21.278Z,0.00
2023-02-06T00:08:19.987Z,0.00
2023-02-06T00:09:20.349Z,0.00
2023-02-06T00:10:21.653Z,0.00
2023-02-06T00:11:21.555Z,0.00
2023-02-06T00:12:19.789Z,0.00
2023-02-06T00:13:20.840Z,0.00
2023-02-06T00:14:19.295Z,0.00
2023-02-06T00:15:19.268Z,0.00
2023-02-06T00:16:19.555Z,0.00
2023-02-06T00:17:19.764Z,0.00
2023-02-06T00:18:19.655Z,0.00
2023-02-06T00:19:21.053Z,0.00
2023-02-06T00:20:22.158Z,0.00
2023-02-06T00:21:19.632Z,0.00
2023-02-06T00:22:19.706Z,0.00
2023-02-06T00:23:18.748Z,0.00
2023-02-06T00:24:18.739Z,0.00
2023-02-06T00:25:19.567Z,0.00
2023-02-06T00:26:19.025Z,0.00
2023-02-06T00:27:21.164Z,0.00
2023-02-06T00:28:19.019Z,0.00
2023-02-06T00:29:20.140Z,0.00
2023-02-06T00:30:20.527Z,0.00
2023-02-06T00:31:23.547Z,0.00
2023-02-06T00:32:20.181Z,0.00
2023-02-06T00:33:21.126Z,0.00
2023-02-06T00:34:19.167Z,0.00
2023-02-06T00:35:18.748Z,0.00
2023-02-06T00:36:22.057Z,0.00
2023-02-06T00:37:20.119Z,0.00
2023-02-06T00:38:23.285Z,0.00
2023-02-06T00:39:18.726Z,0.00
2023-02-06T00:40:22.332Z,0.00
2023-02-06T00:41:23.213Z,0.00
2023-02-06T00:42:23.415Z,0.00
2023-02-06T00:43:40.897Z,0.00
2023-02-06T00:44:18.750Z,0.00
2023-02-06T00:45:20.692Z,0.00
2023-02-06T00:46:21.140Z,0.00
2023-02-06T00:47:22.464Z,0.00
2023-02-06T00:48:19.924Z,0.00
2023-02-06T00:49:20.556Z,0.00
2023-02-06T00:50:21.842Z,0.00
2023-02-06T00:51:19.713Z,0.00
2023-02-06T00:52:21.563Z,0.00
2023-02-06T00:53:21.418Z,0.00
2023-02-06T00:54:18.400Z,0.00
2023-02-06T00:55:18.497Z,0.00
2023-02-06T00:56:18.516Z,0.00
2023-02-06T00:57:20.004Z,0.00
2023-02-06T00:58:18.523Z,0.00
2023-02-06T00:59:18.456Z,0.00
2023-02-06T01:00:19.344Z,0.00
2023-02-06T01:01:18.530Z,0.00
2023-02-06T01:02:22.208Z,0.00
2023-02-06T01:03:19.665Z,0.00
2023-02-06T01:04:19.828Z,0.00
2023-02-06T01:05:19.966Z,0.00
2023-02-06T01:06:18.529Z,0.00
2023-02-06T01:07:20.900Z,0.00
2023-02-06T01:09:50.427Z,0.00
2023-02-06T01:10:34.799Z,0.00
2023-02-06T01:11:34.663Z,0.00
2023-02-06T01:12:35.092Z,0.00
2023-02-06T01:13:35.871Z,0.00
2023-02-06T01:14:37.125Z,0.00
2023-02-06T01:15:35.306Z,0.00
2023-02-06T01:16:34.795Z,0.00
2023-02-06T01:17:35.658Z,0.00
2023-02-06T01:18:34.787Z,0.00
2023-02-06T01:19:41.408Z,0.00
2023-02-06T01:20:34.474Z,0.00
2023-02-06T01:23:07.826Z,0.00
2023-02-06T01:24:04.187Z,0.00
2023-02-06T01:25:02.848Z,0.00
2023-02-06T01:26:01.318Z,0.00
2023-02-06T01:27:01.318Z,0.00
2023-02-06T01:28:01.595Z,0.00
2023-02-06T01:29:01.274Z,0.00
2023-02-06T01:30:01.354Z,0.00
2023-02-06T01:31:02.416Z,0.00
2023-02-06T01:32:02.639Z,0.00
2023-02-06T01:33:02.625Z,0.00
2023-02-06T01:34:02.714Z,0.00
2023-02-06T01:35:01.698Z,0.00
2023-02-06T01:36:02.057Z,0.00
2023-02-06T01:37:04.074Z,0.00
2023-02-06T01:38:02.349Z,0.00
2023-02-06T01:39:02.001Z,0.00
2023-02-06T01:40:00.738Z,0.00
2023-02-06T01:41:04.794Z,0.00
2023-02-06T01:42:01.178Z,0.00
2023-02-06T01:43:02.123Z,0.00
2023-02-06T01:44:03.036Z,0.00
2023-02-06T01:45:02.828Z,0.00
2023-02-06T01:46:07.283Z,0.00
2023-02-06T01:47:02.240Z,0.00
2023-02-06T01:48:01.028Z,0.00
2023-02-06T01:49:01.251Z,0.00
2023-02-06T01:50:00.212Z,0.00
2023-02-06T01:51:00.137Z,0.00
2023-02-06T01:52:00.269Z,0.00
2023-02-06T01:53:00.092Z,0.00
2023-02-06T01:54:03.168Z,0.00
2023-02-06T01:55:00.182Z,0.00
2023-02-06T01:56:00.121Z,0.00
2023-02-06T01:57:01.512Z,0.00
2023-02-06T01:58:02.599Z,0.00
2023-02-06T01:59:01.532Z,0.00
2023-02-06T02:00:02.466Z,0.00
2023-02-06T02:01:02.004Z,0.00
2023-02-06T02:02:01.077Z,0.00
2023-02-06T02:03:05.576Z,0.00
2023-02-06T02:04:02.375Z,0.00
2023-02-06T02:05:00.183Z,0.00
2023-02-06T02:07:38.144Z,0.00
2023-02-06T02:08:37.287Z,0.00
2023-02-06T02:09:35.741Z,0.00
2023-02-06T02:10:35.708Z,0.00
2023-02-06T02:11:35.946Z,0.00
2023-02-06T02:12:35.740Z,0.00
2023-02-06T02:13:35.829Z,0.00
2023-02-06T02:14:36.574Z,0.00
2023-02-06T02:15:36.501Z,0.00
2023-02-06T02:16:36.029Z,0.00
2023-02-06T02:17:35.715Z,0.00
2023-02-06T02:18:36.402Z,0.00
2023-02-06T02:19:35.922Z,0.00
2023-02-06T02:20:36.640Z,0.00
2023-02-06T02:21:38.750Z,0.00
2023-02-06T02:22:36.506Z,0.00
2023-02-06T02:23:35.803Z,0.00
2023-02-06T02:24:37.015Z,0.00
2023-02-06T02:25:36.998Z,0.00
2023-02-06T02:26:36.482Z,0.00
2023-02-06T02:27:37.741Z,0.00
2023-02-06T02:28:36.989Z,0.00
2023-02-06T02:29:36.590Z,0.00
2023-02-06T02:30:36.593Z,0.00
2023-02-06T02:31:35.857Z,0.00
2023-02-06T02:32:36.926Z,0.00
2023-02-06T02:33:36.193Z,0.00
2023-02-06T02:34:35.652Z,0.00
2023-02-06T02:35:35.985Z,0.00
2023-02-06T02:36:39.872Z,0.00
2023-02-06T02:37:36.638Z,0.00
2023-02-06T02:38:38.143Z,0.00
2023-02-06T02:39:35.960Z,0.00
2023-02-06T02:40:37.642Z,0.00
2023-02-06T02:41:36.312Z,0.00
2023-02-06T02:42:36.153Z,0.00
2023-02-06T02:43:35.662Z,0.00
2023-02-06T02:44:36.110Z,0.00
2023-02-06T02:45:38.244Z,0.00
2023-02-06T02:46:36.386Z,0.00
2023-02-06T02:47:35.740Z,0.00
2023-02-06T02:48:36.738Z,0.00
2023-02-06T02:49:37.037Z,0.00
2023-02-06T02:50:36.174Z,0.00
2023-02-06T02:51:37.925Z,0.00
2023-02-06T02:52:36.783Z,0.00
2023-02-06T02:53:35.224Z,0.00
2023-02-06T02:54:35.570Z,0.00
2023-02-06T02:55:35.725Z,0.00
2023-02-06T02:56:35.500Z,0.00
2023-02-06T02:57:35.192Z,0.00
2023-02-06T02:58:35.353Z,0.00
2023-02-06T02:59:36.043Z,0.00
2023-02-06T03:00:35.150Z,0.00
2023-02-06T03:01:37.255Z,0.00
2023-02-06T03:02:35.484Z,0.00
2023-02-06T03:03:36.234Z,0.00
2023-02-06T03:04:37.306Z,0.00
2023-02-06T03:05:37.980Z,0.00
2023-02-06T03:06:35.574Z,0.00
2023-02-06T03:07:35.702Z,0.00
2023-02-06T03:08:37.880Z,0.00
2023-02-06T03:09:35.329Z,0.00
2023-02-06T03:10:36.462Z,0.00
2023-02-06T03:11:56.293Z,0.00
2023-02-06T03:12:35.422Z,0.00
2023-02-06T03:13:35.320Z,0.00
2023-02-06T03:14:36.060Z,0.00
2023-02-06T03:15:37.345Z,0.00
2023-02-06T03:16:37.988Z,0.00
2023-02-06T03:17:37.301Z,0.00
2023-02-06T03:18:35.870Z,0.00
2023-02-06T03:19:36.624Z,0.00
2023-02-06T03:20:34.912Z,0.00
2023-02-06T03:21:37.132Z,0.00
2023-02-06T03:22:35.801Z,0.00
2023-02-06T03:23:37.321Z,0.00
2023-02-06T03:24:35.872Z,0.00
2023-02-06T03:25:36.562Z,0.00
2023-02-06T03:26:36.109Z,0.00
2023-02-06T03:29:05.768Z,0.00
2023-02-06T03:29:53.664Z,0.00
2023-02-06T03:30:54.501Z,0.00
2023-02-06T03:31:53.585Z,0.00
2023-02-06T03:32:56.778Z,0.00
2023-02-06T03:33:53.396Z,0.00
2023-02-06T03:34:53.351Z,0.00
2023-02-06T03:35:53.815Z,0.00
2023-02-06T03:36:55.521Z,0.00
2023-02-06T03:37:54.315Z,0.00
2023-02-06T03:38:54.480Z,0.00
2023-02-06T03:39:53.478Z,0.00
2023-02-06T03:40:55.568Z,0.00
2023-02-06T03:41:53.664Z,0.00
2023-02-06T03:42:53.931Z,0.00
2023-02-06T03:43:53.668Z,0.00
2023-02-06T03:44:55.457Z,0.00
2023-02-06T03:45:53.418Z,0.00
2023-02-06T03:46:53.860Z,0.00
2023-02-06T03:47:54.244Z,0.00
2023-02-06T03:48:53.495Z,0.00
2023-02-06T03:49:54.297Z,0.00
2023-02-06T03:50:52.895Z,0.00
2023-02-06T03:51:55.104Z,0.00
2023-02-06T03:52:53.617Z,0.00
2023-02-06T03:53:53.188Z,0.00
2023-02-06T03:54:53.106Z,0.00
2023-02-06T03:55:52.900Z,0.00
2023-02-06T03:56:54.344Z,0.00
2023-02-06T03:57:53.505Z,0.00
2023-02-06T03:58:53.268Z,0.00
2023-02-06T03:59:54.034Z,0.00
2023-02-06T04:00:53.062Z,0.00
2023-02-06T04:01:53.137Z,0.00
2023-02-06T04:02:58.219Z,0.00
2023-02-06T04:03:54.341Z,0.00
2023-02-06T04:04:53.805Z,0.00
2023-02-06T04:05:52.873Z,0.00
2023-02-06T04:06:55.990Z,0.00
2023-02-06T04:07:54.693Z,0.00
2023-02-06T04:08:54.578Z,0.00
2023-02-06T04:09:55.588Z,0.00
2023-02-06T04:11:20.341Z,0.00
2023-02-06T04:11:54.318Z,0.00
2023-02-06T04:12:54.031Z,0.00
2023-02-06T04:13:52.582Z,0.00
2023-02-06T04:14:54.001Z,0.00
2023-02-06T04:15:52.873Z,0.00
2023-02-06T04:16:53.704Z,0.00
2023-02-06T04:18:00.003Z,0.00
2023-02-06T04:18:54.059Z,0.00
2023-02-06T04:19:52.973Z,0.00
2023-02-06T04:20:53.811Z,0.00
2023-02-06T04:21:52.663Z,0.00
2023-02-06T04:22:52.774Z,0.00
2023-02-06T04:23:52.697Z,0.00
2023-02-06T04:24:53.852Z,0.00
2023-02-06T04:25:53.280Z,0.00
2023-02-06T04:26:52.528Z,0.00
2023-02-06T04:27:52.683Z,0.00
2023-02-06T04:28:53.263Z,0.00
2023-02-06T04:29:52.421Z,0.00
2023-02-06T04:30:52.527Z,0.00
2023-02-06T04:31:53.170Z,0.00
2023-02-06T04:32:52.701Z,0.00
2023-02-06T04:33:54.052Z,0.00
2023-02-06T04:34:52.505Z,0.00
2023-02-06T04:35:52.758Z,0.00
2023-02-06T04:36:53.174Z,0.00
2023-02-06T04:37:54.398Z,0.00
2023-02-06T04:38:52.471Z,0.00
2023-02-06T04:39:52.324Z,0.00
2023-02-06T04:40:52.705Z,0.00
2023-02-06T04:41:52.876Z,0.00
2023-02-06T04:42:52.324Z,0.00
2023-02-06T04:43:52.338Z,0.00
2023-02-06T04:44:53.045Z,0.00
2023-02-06T04:45:52.753Z,0.00
2023-02-06T04:47:13.560Z,0.00
2023-02-06T04:47:52.403Z,0.00
2023-02-06T04:48:52.569Z,0.00
2023-02-06T04:49:53.346Z,0.00
2023-02-06T04:50:52.536Z,0.00
2023-02-06T04:51:52.443Z,0.00
2023-02-06T04:52:55.409Z,0.00
2023-02-06T04:53:52.104Z,0.00
2023-02-06T04:54:52.315Z,0.00
2023-02-06T04:55:52.412Z,0.00
2023-02-06T04:56:53.021Z,0.00
2023-02-06T04:57:52.465Z,0.00
2023-02-06T04:58:52.182Z,0.00
2023-02-06T04:59:52.365Z,0.00
2023-02-06T05:00:53.213Z,0.00
2023-02-06T05:01:52.021Z,0.00
2023-02-06T05:02:53.165Z,0.00
2023-02-06T05:03:52.118Z,0.00
2023-02-06T05:04:53.362Z,0.00
2023-02-06T05:05:52.964Z,0.00
2023-02-06T05:06:54.423Z,0.00
2023-02-06T05:07:52.390Z,0.00
2023-02-06T05:08:52.487Z,0.00
2023-02-06T05:09:52.366Z,0.00
2023-02-06T05:10:52.552Z,0.00
2023-02-06T05:11:52.173Z,0.00
2023-02-06T05:12:52.374Z,0.00
2023-02-06T05:13:52.404Z,0.00
2023-02-06T05:14:51.969Z,0.00
2023-02-06T05:15:52.605Z,0.00
2023-02-06T05:16:52.252Z,0.00
2023-02-06T05:17:52.997Z,0.00
2023-02-06T05:18:52.319Z,0.00
2023-02-06T05:19:52.224Z,0.00
2023-02-06T05:20:53.115Z,0.00
2023-02-06T05:21:52.602Z,0.00
2023-02-06T05:22:52.227Z,0.00
2023-02-06T05:23:53.241Z,0.00
2023-02-06T05:24:52.342Z,0.00
2023-02-06T05:25:53.569Z,0.00
2023-02-06T05:26:54.246Z,0.00
2023-02-06T05:27:51.661Z,0.00
2023-02-06T05:28:53.032Z,0.00
2023-02-06T05:29:51.825Z,0.00
2023-02-06T05:30:51.993Z,0.00
2023-02-06T05:31:52.998Z,0.00
2023-02-06T05:32:51.854Z,0.00
2023-02-06T05:33:52.960Z,0.00
2023-02-06T05:34:52.495Z,0.00
2023-02-06T05:35:51.779Z,0.00
2023-02-06T05:36:52.818Z,0.00
2023-02-06T05:37:51.677Z,0.00
2023-02-06T05:38:51.519Z,0.00
2023-02-06T05:39:51.433Z,0.00
2023-02-06T05:40:51.459Z,0.00
2023-02-06T05:41:51.461Z,0.00
2023-02-06T05:42:51.546Z,0.00
2023-02-06T05:43:51.926Z,0.00
2023-02-06T05:44:51.631Z,0.00
2023-02-06T05:45:51.838Z,0.00
2023-02-06T05:46:52.551Z,0.00
2023-02-06T05:47:51.571Z,0.00
2023-02-06T05:48:51.590Z,0.00
2023-02-06T05:49:54.799Z,0.00
2023-02-06T05:50:53.861Z,0.00
2023-02-06T05:51:52.640Z,0.00
2023-02-06T05:52:56.385Z,0.00
2023-02-06T05:53:51.684Z,0.00
2023-02-06T05:54:52.580Z,0.00
2023-02-06T05:55:53.384Z,0.00
2023-02-06T05:56:52.827Z,0.00
2023-02-06T05:57:52.528Z,0.00
2023-02-06T05:58:54.410Z,0.00
2023-02-06T05:59:56.690Z,0.00
2023-02-06T06:00:53.443Z,0.00
2023-02-06T06:01:51.782Z,0.00
2023-02-06T06:02:53.381Z,0.00
2023-02-06T06:03:51.926Z,0.00
2023-02-06T06:04:51.397Z,0.00
2023-02-06T06:05:51.577Z,0.00
2023-02-06T06:06:51.771Z,0.00
2023-02-06T06:07:51.542Z,0.00
2023-02-06T06:08:54.765Z,0.00
2023-02-06T06:09:55.650Z,0.00
2023-02-06T06:10:51.333Z,0.00
2023-02-06T06:11:53.245Z,0.00
2023-02-06T06:12:52.561Z,0.00
2023-02-06T06:13:55.227Z,0.00
2023-02-06T06:14:51.619Z,0.00
2023-02-06T06:15:52.575Z,0.00
2023-02-06T06:16:51.557Z,0.00
2023-02-06T06:17:54.556Z,0.00
2023-02-06T06:19:32.617Z,0.00
2023-02-06T06:19:53.191Z,0.00
2023-02-06T06:20:51.087Z,0.00
2023-02-06T06:21:52.281Z,0.00
2023-02-06T06:22:52.164Z,0.00
2023-02-06T06:23:53.293Z,0.00
2023-02-06T06:24:52.756Z,0.00
2023-02-06T06:25:51.701Z,0.00
2023-02-06T06:26:53.444Z,0.00
2023-02-06T06:27:51.983Z,0.00
2023-02-06T06:28:52.625Z,0.00
2023-02-06T06:29:54.654Z,0.00
2023-02-06T06:31:18.669Z,0.00
2023-02-06T06:31:53.443Z,0.00
2023-02-06T06:32:52.277Z,0.00
2023-02-06T06:33:54.104Z,0.00
2023-02-06T06:34:53.417Z,0.00
2023-02-06T06:35:52.893Z,0.00
2023-02-06T06:36:52.493Z,0.00
2023-02-06T06:37:51.732Z,0.00
2023-02-06T06:38:52.617Z,0.00
2023-02-06T06:39:51.473Z,0.00
2023-02-06T06:40:51.869Z,0.00
2023-02-06T06:41:52.118Z,0.00
2023-02-06T06:42:53.504Z,5.62
2023-02-06T06:43:53.616Z,5.62
2023-02-06T06:44:54.821Z,5.62
2023-02-06T06:45:52.541Z,5.62
2023-02-06T06:46:51.483Z,5.62
2023-02-06T06:47:51.824Z,5.62
2023-02-06T06:48:52.777Z,5.62
2023-02-06T06:49:50.859Z,11.25
2023-02-06T06:50:50.649Z,11.25
2023-02-06T06:51:50.630Z,11.25
2023-02-06T06:52:50.753Z,11.25
2023-02-06T06:53:50.524Z,11.25
2023-02-06T06:54:52.305Z,11.25
2023-02-06T06:55:50.562Z,11.25
2023-02-06T06:56:52.154Z,16.88
2023-02-06T06:57:50.565Z,16.88
2023-02-06T06:58:51.039Z,16.88
2023-02-06T06:59:51.114Z,22.50
2023-02-06T07:00:53.610Z,22.50
2023-02-06T07:01:50.636Z,22.50
2023-02-06T07:02:54.309Z,22.50
2023-02-06T07:03:52.728Z,28.12
2023-02-06T07:04:55.128Z,28.12
2023-02-06T07:05:52.972Z,33.75
2023-02-06T07:06:51.905Z,33.75
2023-02-06T07:07:51.530Z,33.75
2023-02-06T07:08:52.295Z,39.38
2023-02-06T07:09:51.414Z,39.38
2023-02-06T07:10:51.591Z,45.00
2023-02-06T07:11:50.938Z,45.00
2023-02-06T07:12:50.354Z,45.00
2023-02-06T07:13:50.466Z,50.62
2023-02-06T07:14:50.193Z,50.62
2023-02-06T07:15:50.280Z,56.25
2023-02-06T07:16:52.608Z,56.25
2023-02-06T07:17:51.739Z,56.25
2023-02-06T07:18:51.558Z,61.88
2023-02-06T07:19:51.345Z,61.88
2023-02-06T07:20:50.590Z,67.50
2023-02-06T07:21:53.120Z,67.50
2023-02-06T07:22:51.047Z,73.12
2023-02-06T07:23:51.166Z,73.12
2023-02-06T07:24:52.400Z,78.75
2023-02-06T07:25:51.337Z,78.75
2023-02-06T07:26:51.703Z,84.38
2023-02-06T07:27:51.552Z,84.38
2023-02-06T07:28:51.945Z,90.00
2023-02-06T07:29:51.043Z,90.00
2023-02-06T07:30:51.318Z,90.00
2023-02-06T07:31:52.349Z,95.62
2023-02-06T07:32:53.044Z,95.62
2023-02-06T07:33:50.059Z,101.25
2023-02-06T07:34:53.582Z,101.25
2023-02-06T07:35:51.097Z,101.25
2023-02-06T07:36:50.731Z,106.88
2023-02-06T07:37:51.430Z,106.88
2023-02-06T07:38:50.843Z,112.50
2023-02-06T07:39:53.198Z,112.50
2023-02-06T07:40:52.146Z,118.12
2023-02-06T07:41:50.928Z,118.12
2023-02-06T07:42:51.047Z,123.75
2023-02-06T07:43:50.249Z,123.75
2023-02-06T07:44:50.409Z,129.38
2023-02-06T07:45:50.773Z,129.38
2023-02-06T07:46:51.055Z,129.38
2023-02-06T07:47:51.461Z,135.00
2023-02-06T07:48:53.139Z,135.00
2023-02-06T07:49:50.262Z,140.62
2023-02-06T07:50:52.365Z,146.25
2023-02-06T07:51:50.134Z,151.88
2023-02-06T07:52:49.926Z,157.50
2023-02-06T07:53:49.943Z,168.75
2023-02-06T07:54:49.859Z,180.00
2023-02-06T07:55:49.844Z,191.25
2023-02-06T07:56:49.797Z,196.88
2023-02-06T07:57:49.852Z,208.12
2023-02-06T07:58:49.760Z,208.12
2023-02-06T07:59:50.083Z,213.75
2023-02-06T08:00:50.106Z,219.38
2023-02-06T08:01:49.664Z,225.00
2023-02-06T08:02:49.694Z,225.00
2023-02-06T08:03:50.246Z,225.00
2023-02-06T08:04:50.389Z,225.00
2023-02-06T08:05:50.724Z,230.62
2023-02-06T08:06:51.428Z,230.62
2023-02-06T08:07:50.481Z,236.25
2023-02-06T08:08:51.498Z,241.88
2023-02-06T08:09:51.737Z,247.50
2023-02-06T08:10:52.443Z,247.50
2023-02-06T08:11:53.108Z,253.12
2023-02-06T08:12:55.854Z,253.12
2023-02-06T08:13:51.492Z,253.12
2023-02-06T08:14:50.489Z,241.88
2023-02-06T08:15:49.951Z,247.50
2023-02-06T08:16:52.281Z,253.12
2023-02-06T08:17:51.279Z,258.75
2023-02-06T08:18:49.590Z,258.75
2023-02-06T08:19:50.530Z,270.00
2023-02-06T08:20:51.432Z,275.62
2023-02-06T08:21:51.302Z,286.88
2023-02-06T08:22:49.539Z,303.75
2023-02-06T08:23:50.895Z,309.38
2023-02-06T08:24:52.260Z,320.62
2023-02-06T08:25:50.078Z,331.88
2023-02-06T08:26:50.566Z,337.50
2023-02-06T08:27:50.639Z,348.75
2023-02-06T08:28:53.775Z,354.38
2023-02-06T08:29:50.743Z,360.00
2023-02-06T08:30:52.072Z,365.62
2023-02-06T08:31:49.490Z,365.62
2023-02-06T08:32:49.620Z,376.88
2023-02-06T08:33:52.264Z,382.50
2023-02-06T08:34:54.616Z,382.50
2023-02-06T08:35:52.358Z,388.12
2023-02-06T08:36:49.415Z,393.75
2023-02-06T08:37:49.209Z,405.00
2023-02-06T08:38:51.255Z,405.00
2023-02-06T08:39:49.488Z,410.62
2023-02-06T08:40:51.044Z,405.00
2023-02-06T08:41:52.416Z,405.00
2023-02-06T08:42:49.241Z,399.38
2023-02-06T08:43:50.305Z,393.75
2023-02-06T08:44:52.851Z,393.75
2023-02-06T08:45:50.373Z,393.75
2023-02-06T08:46:52.321Z,399.38
2023-02-06T08:47:50.211Z,405.00
2023-02-06T08:48:49.159Z,405.00
2023-02-06T08:49:50.004Z,405.00
2023-02-06T08:50:49.549Z,410.62
2023-02-06T08:51:50.171Z,416.25
2023-02-06T08:52:50.182Z,421.88
2023-02-06T08:53:49.718Z,421.88
2023-02-06T08:54:49.231Z,427.50
2023-02-06T08:55:49.885Z,433.12
2023-02-06T08:56:49.894Z,433.12
2023-02-06T08:57:49.713Z,433.12
2023-02-06T08:58:50.773Z,438.75
2023-02-06T08:59:50.667Z,444.38
2023-02-06T09:00:49.266Z,444.38
2023-02-06T09:01:49.889Z,444.38
2023-02-06T09:02:49.138Z,450.00
2023-02-06T09:03:50.872Z,455.62
2023-02-06T09:04:49.158Z,461.25
2023-02-06T09:05:49.279Z,472.50
2023-02-06T09:06:48.984Z,483.75
2023-02-06T09:07:50.286Z,489.38
2023-02-06T09:08:52.758Z,495.00
2023-02-06T09:09:49.210Z,495.00
2023-02-06T09:10:50.141Z,500.62
2023-02-06T09:11:49.333Z,500.62
2023-02-06T09:12:50.479Z,500.62
2023-02-06T09:13:49.415Z,500.62
2023-02-06T09:14:51.092Z,500.62
2023-02-06T09:15:50.729Z,495.00
2023-02-06T09:16:52.080Z,489.38
2023-02-06T09:17:49.458Z,478.12
2023-02-06T09:18:49.856Z,472.50
2023-02-06T09:19:50.200Z,461.25
2023-02-06T09:20:49.422Z,455.62
2023-02-06T09:21:48.770Z,444.38
2023-02-06T09:22:48.717Z,438.75
2023-02-06T09:23:56.679Z,427.50
2023-02-06T09:24:49.842Z,410.62
2023-02-06T09:25:51.705Z,393.75
2023-02-06T09:26:59.510Z,388.12
2023-02-06T09:27:52.541Z,382.50
2023-02-06T09:28:49.922Z,382.50
2023-02-06T09:29:49.858Z,376.88
2023-02-06T09:30:50.383Z,365.62
2023-02-06T09:31:49.372Z,354.38
2023-02-06T09:32:48.561Z,343.12
2023-02-06T09:33:50.551Z,331.88
2023-02-06T09:34:49.309Z,320.62
2023-02-06T09:35:50.482Z,303.75
2023-02-06T09:36:50.155Z,298.12
2023-02-06T09:37:51.265Z,286.88
2023-02-06T09:38:48.800Z,281.25
2023-02-06T09:39:48.510Z,281.25
2023-02-06T09:40:48.999Z,286.88
2023-02-06T09:41:49.805Z,292.50
2023-02-06T09:42:48.413Z,303.75
2023-02-06T09:43:49.157Z,309.38
2023-02-06T09:45:48.510Z,315.00
2023-02-06T09:46:38.190Z,315.00
2023-02-06T09:47:37.587Z,320.62
2023-02-06T09:48:36.571Z,337.50
2023-02-06T09:49:35.553Z,343.12
2023-02-06T09:50:37.472Z,343.12
2023-02-06T09:51:35.277Z,354.38
2023-02-06T09:53:01.273Z,376.88
2023-02-06T09:53:35.822Z,388.12
2023-02-06T09:54:40.030Z,393.75
2023-02-06T09:55:37.987Z,405.00
2023-02-06T09:56:35.281Z,416.25
2023-02-06T09:57:35.462Z,427.50
2023-02-06T09:58:37.645Z,444.38
2023-02-06T09:59:35.188Z,461.25
2023-02-06T10:00:36.841Z,461.25
2023-02-06T10:01:36.836Z,450.00
2023-02-06T10:02:35.523Z,444.38
2023-02-06T10:03:35.392Z,444.38
2023-02-06T10:04:36.811Z,438.75
2023-02-06T10:05:35.893Z,427.50
2023-02-06T10:06:37.992Z,416.25
2023-02-06T10:07:36.787Z,410.62
2023-02-06T10:08:36.048Z,405.00
2023-02-06T10:09:36.381Z,410.62
2023-02-06T10:10:37.080Z,410.62
2023-02-06T10:11:35.371Z,410.62
2023-02-06T10:12:38.695Z,433.12
2023-02-06T10:13:35.835Z,421.88
2023-02-06T10:14:36.455Z,388.12
2023-02-06T10:15:36.635Z,360.00
2023-02-06T10:16:36.615Z,354.38
2023-02-06T10:17:35.962Z,354.38
2023-02-06T10:18:34.950Z,360.00
2023-02-06T10:19:34.776Z,360.00
2023-02-06T10:20:34.691Z,354.38
2023-02-06T10:21:34.695Z,360.00
2023-02-06T10:22:34.725Z,365.62
2023-02-06T10:23:34.599Z,365.62
2023-02-06T10:24:34.625Z,360.00
2023-02-06T10:25:34.751Z,360.00
2023-02-06T10:26:34.748Z,365.62
2023-02-06T10:27:34.575Z,371.25
2023-02-06T10:28:34.699Z,360.00
2023-02-06T10:29:34.540Z,348.75
2023-02-06T10:30:34.545Z,343.12
2023-02-06T10:31:34.469Z,331.88
2023-02-06T10:32:34.572Z,326.25
2023-02-06T10:33:41.318Z,315.00
2023-02-06T10:34:39.773Z,315.00
2023-02-06T10:35:37.083Z,309.38
2023-02-06T10:36:34.600Z,303.75
2023-02-06T10:37:35.746Z,303.75
2023-02-06T10:38:36.740Z,303.75
2023-02-06T10:39:37.222Z,303.75
2023-02-06T10:40:35.669Z,298.12
2023-02-06T10:41:35.465Z,298.12
2023-02-06T10:42:40.525Z,298.12
2023-02-06T10:43:36.760Z,298.12
2023-02-06T10:44:38.192Z,303.75
2023-02-06T10:45:39.880Z,303.75
2023-02-06T10:46:35.312Z,298.12
2023-02-06T10:47:39.019Z,298.12
2023-02-06T10:48:35.835Z,292.50
2023-02-06T10:49:34.688Z,292.50
2023-02-06T10:50:38.518Z,292.50
2023-02-06T10:51:34.596Z,292.50
2023-02-06T10:52:35.386Z,292.50
2023-02-06T10:53:37.409Z,292.50
2023-02-06T10:54:36.449Z,292.50
2023-02-06T10:55:35.286Z,286.88
2023-02-06T10:56:36.021Z,286.88
2023-02-06T10:57:34.705Z,286.88
2023-02-06T10:59:01.417Z,292.50
2023-02-06T10:59:35.519Z,292.50
2023-02-06T11:00:36.410Z,298.12
2023-02-06T11:01:37.307Z,303.75
2023-02-06T11:02:38.657Z,303.75
2023-02-06T11:03:35.186Z,309.38
2023-02-06T11:04:40.955Z,309.38
2023-02-06T11:05:37.785Z,315.00
2023-02-06T11:06:35.339Z,320.62
2023-02-06T11:07:38.554Z,326.25
2023-02-06T11:08:34.936Z,331.88
2023-02-06T11:09:35.517Z,320.62
2023-02-06T11:10:37.296Z,331.88
2023-02-06T11:11:37.290Z,331.88
2023-02-06T11:12:33.967Z,326.25
2023-02-06T11:13:33.967Z,343.12
2023-02-06T11:14:33.847Z,348.75
2023-02-06T11:15:34.053Z,343.12
2023-02-06T11:16:33.796Z,326.25
2023-02-06T11:17:39.826Z,315.00
2023-02-06T11:18:38.049Z,309.38
2023-02-06T11:19:37.960Z,303.75
2023-02-06T11:22:12.199Z,298.12
2023-02-06T11:23:13.935Z,298.12
2023-02-06T11:24:14.741Z,303.75
2023-02-06T11:25:11.171Z,309.38
2023-02-06T11:26:13.326Z,309.38
2023-02-06T11:27:16.954Z,315.00
2023-02-06T11:28:17.372Z,315.00
2023-02-06T11:29:13.456Z,315.00
2023-02-06T11:30:13.352Z,315.00
2023-02-06T11:31:13.832Z,309.38
2023-02-06T11:32:11.404Z,303.75
2023-02-06T11:33:12.489Z,303.75
2023-02-06T11:34:11.077Z,309.38
2023-02-06T11:35:13.903Z,309.38
2023-02-06T11:36:11.288Z,309.38
2023-02-06T11:37:16.017Z,309.38
2023-02-06T11:38:13.070Z,309.38
2023-02-06T11:39:14.521Z,315.00
2023-02-06T11:40:17.013Z,320.62
2023-02-06T11:41:14.852Z,320.62
2023-02-06T11:42:11.571Z,320.62
2023-02-06T11:43:19.703Z,320.62
2023-02-06T11:44:12.429Z,315.00
2023-02-06T11:45:13.526Z,309.38
2023-02-06T11:46:13.811Z,309.38
2023-02-06T11:47:11.315Z,309.38
2023-02-06T11:48:10.966Z,309.38
2023-02-06T11:49:10.916Z,309.38
2023-02-06T11:50:12.832Z,303.75
2023-02-06T11:51:15.057Z,303.75
2023-02-06T11:52:11.920Z,298.12
2023-02-06T11:53:14.582Z,298.12
2023-02-06T11:54:13.502Z,292.50
2023-02-06T11:55:14.399Z,292.50
2023-02-06T11:56:22.913Z,292.50
2023-02-06T11:59:11.612Z,292.50
2023-02-06T11:59:53.922Z,292.50
2023-02-06T12:00:54.270Z,298.12
2023-02-06T12:01:53.958Z,298.12
2023-02-06T12:02:54.026Z,298.12
2023-02-06T12:03:55.348Z,303.75
2023-02-06T12:04:58.044Z,303.75
2023-02-06T12:05:58.976Z,309.38
2023-02-06T12:06:54.398Z,309.38
2023-02-06T12:07:56.134Z,315.00
2023-02-06T12:08:55.272Z,315.00
2023-02-06T12:09:54.804Z,320.62
2023-02-06T12:10:54.874Z,326.25
2023-02-06T12:11:53.666Z,320.62
2023-02-06T12:12:53.998Z,320.62
2023-02-06T12:13:54.109Z,315.00
2023-02-06T12:14:54.783Z,309.38
2023-02-06T12:15:54.148Z,309.38
2023-02-06T12:16:54.561Z,309.38
2023-02-06T12:17:55.494Z,303.75
2023-02-06T12:18:56.846Z,303.75
2023-02-06T12:19:56.711Z,303.75
2023-02-06T12:20:58.033Z,298.12
2023-02-06T12:21:57.305Z,298.12
2023-02-06T12:22:56.863Z,298.12
2023-02-06T12:23:56.082Z,303.75
2023-02-06T12:24:55.976Z,303.75
2023-02-06T12:25:55.212Z,309.38
2023-02-06T12:26:54.132Z,303.75
2023-02-06T12:27:54.164Z,309.38
2023-02-06T12:28:56.428Z,309.38
2023-02-06T12:29:53.710Z,309.38
2023-02-06T12:30:53.377Z,309.38
2023-02-06T12:31:53.630Z,315.00
2023-02-06T12:32:53.486Z,315.00
2023-02-06T12:33:55.416Z,315.00
2023-02-06T12:35:01.436Z,320.62
2023-02-06T12:35:56.799Z,326.25
2023-02-06T12:37:01.204Z,326.25
2023-02-06T12:37:57.254Z,337.50
2023-02-06T12:38:55.416Z,343.12
2023-02-06T12:40:06.991Z,360.00
2023-02-06T12:40:55.478Z,393.75
2023-02-06T12:42:01.692Z,461.25
2023-02-06T12:43:01.793Z,556.88
2023-02-06T12:43:56.069Z,630.00
2023-02-06T12:44:58.601Z,680.62
2023-02-06T12:45:54.642Z,708.75
2023-02-06T12:47:00.934Z,708.75
2023-02-06T12:47:55.599Z,708.75
2023-02-06T12:48:54.059Z,703.12
2023-02-06T12:49:54.178Z,703.12
2023-02-06T12:50:58.100Z,708.75
2023-02-06T12:51:53.165Z,708.75
2023-02-06T12:52:53.042Z,708.75
2023-02-06T12:53:53.302Z,714.38
2023-02-06T12:54:53.357Z,720.00
2023-02-06T12:55:53.237Z,720.00
2023-02-06T12:56:54.926Z,720.00
2023-02-06T12:57:53.332Z,714.38
2023-02-06T12:58:52.967Z,714.38
2023-02-06T12:59:58.186Z,720.00
2023-02-06T13:00:54.285Z,708.75
2023-02-06T13:01:53.031Z,697.50
2023-02-06T13:03:15.259Z,708.75
2023-02-06T13:03:57.791Z,697.50
2023-02-06T13:04:55.196Z,697.50
2023-02-06T13:05:54.790Z,703.12
2023-02-06T13:06:53.072Z,686.25